Time,TemperatureF,DewpointF,PressureIn,WindDirection,WindDirectionDegrees,WindSpeedMPH,WindSpeedGustMPH,Humidity,HourlyPrecipIn,Conditions,Clouds,dailyrainin,SoftwareType,DateUTC
2013-10-05 00:03:00,73.2,67.4,30.04,SSE,157,0.0,0.0,82,0.00,,,0.00,WUHU21623XXSP,2013-10-05 05:03:00,
2013-10-05 00:08:00,73.2,67.4,30.04,SSW,202,0.0,0.0,82,0.00,,,0.00,WUHU21623XXSP,2013-10-05 05:08:00,
2013-10-05 00:13:00,73.0,67.2,30.04,SSW,202,0.0,0.0,82,0.00,,,0.00,WUHU21623XXSP,2013-10-05 05:13:00,
2013-10-05 00:18:00,72.9,67.4,30.04,SSW,202,0.0,0.0,83,0.00,,,0.00,WUHU21623XXSP,2013-10-05 05:18:00,
2013-10-05 00:23:00,72.5,67.0,30.04,SSW,202,0.0,0.0,83,0.00,,,0.00,WUHU21623XXSP,2013-10-05 05:23:00,
2013-10-05 00:28:00,72.3,66.9,30.04,SSW,202,0.0,0.0,83,0.00,,,0.00,WUHU21623XXSP,2013-10-05 05:28:00,
2013-10-05 00:33:00,72.3,67.2,30.04,SSW,202,0.0,0.0,84,0.00,,,0.00,WUHU21623XXSP,2013-10-05 05:33:00,
2013-10-05 00:38:00,72.1,67.0,30.04,SSW,202,0.0,0.0,84,0.00,,,0.00,WUHU21623XXSP,2013-10-05 05:38:00,
2013-10-05 00:44:00,72.0,66.8,30.04,SSW,202,0.0,0.0,84,0.00,,,0.00,WUHU21623XXSP,2013-10-05 05:44:00,
2013-10-05 00:49:00,71.8,66.7,30.04,SSW,202,0.0,0.0,84,0.00,,,0.00,WUHU21623XXSP,2013-10-05 05:49:00,
2013-10-05 00:54:00,71.6,66.5,30.04,SSW,202,0.0,0.0,84,0.00,,,0.00,WUHU21623XXSP,2013-10-05 05:54:00,
2013-10-05 00:59:00,71.4,66.7,30.05,SSW,202,0.0,0.0,85,0.00,,,0.00,WUHU21623XXSP,2013-10-05 05:59:00,
2013-10-05 01:04:00,71.4,66.7,30.05,SSW,202,0.0,0.0,85,0.00,,,0.00,WUHU21623XXSP,2013-10-05 06:04:00,
2013-10-05 01:09:00,71.2,66.5,30.05,SSW,202,0.0,0.0,85,0.00,,,0.00,WUHU21623XXSP,2013-10-05 06:09:00,
2013-10-05 01:14:00,71.2,66.5,30.05,SSW,202,0.0,0.0,85,0.00,,,0.00,WUHU21623XXSP,2013-10-05 06:14:00,
2013-10-05 01:19:00,71.2,66.5,30.05,SSW,202,0.0,0.0,85,0.00,,,0.00,WUHU21623XXSP,2013-10-05 06:19:00,
2013-10-05 01:24:00,70.9,66.5,30.05,SSW,202,0.0,0.0,85,0.00,,,0.00,WUHU21623XXSP,2013-10-05 06:24:00,
2013-10-05 01:29:00,70.9,66.1,30.05,SSW,202,0.0,0.0,85,0.00,,,0.00,WUHU21623XXSP,2013-10-05 06:29:00,
2013-10-05 01:34:00,70.7,66.3,30.05,SSW,202,0.0,0.0,86,0.00,,,0.00,WUHU21623XXSP,2013-10-05 06:34:00,
2013-10-05 01:40:00,70.7,66.3,30.05,SSW,202,0.0,0.0,86,0.00,,,0.00,WUHU21623XXSP,2013-10-05 06:40:00,
2013-10-05 01:45:00,70.5,66.1,30.05,SSW,202,0.0,0.0,86,0.00,,,0.00,WUHU21623XXSP,2013-10-05 06:45:00,
2013-10-05 01:50:00,70.3,65.9,30.05,SSW,202,0.0,0.0,86,0.00,,,0.00,WUHU21623XXSP,2013-10-05 06:50:00,
2013-10-05 01:55:00,70.3,65.9,30.05,SSW,202,0.0,0.0,86,0.00,,,0.00,WUHU21623XXSP,2013-10-05 06:55:00,
2013-10-05 02:00:00,70.3,65.9,30.05,SSW,202,0.0,0.0,86,0.00,,,0.00,WUHU21623XXSP,2013-10-05 07:00:00,
2013-10-05 02:05:00,70.2,65.7,30.05,SSW,202,0.0,0.0,86,0.00,,,0.00,WUHU21623XXSP,2013-10-05 07:05:00,
2013-10-05 02:10:00,70.2,66.1,30.05,SSW,202,0.0,0.0,87,0.00,,,0.00,WUHU21623XXSP,2013-10-05 07:10:00,
2013-10-05 02:16:00,70.2,66.1,30.05,SSW,202,0.0,0.0,87,0.00,,,0.00,WUHU21623XXSP,2013-10-05 07:16:00,
2013-10-05 02:20:00,70.2,66.1,30.05,SSW,202,0.0,0.0,87,0.00,,,0.00,WUHU21623XXSP,2013-10-05 07:20:00,
2013-10-05 02:25:00,70.2,66.1,30.05,SSW,202,0.0,0.0,87,0.00,,,0.00,WUHU21623XXSP,2013-10-05 07:25:00,
2013-10-05 02:30:00,70.2,66.1,30.05,SSW,202,0.0,0.0,87,0.00,,,0.00,WUHU21623XXSP,2013-10-05 07:30:00,
2013-10-05 02:35:00,70.2,66.1,30.04,SSW,202,0.0,0.0,87,0.00,,,0.00,WUHU21623XXSP,2013-10-05 07:35:00,
2013-10-05 02:40:00,70.2,66.1,30.04,SSW,202,0.0,0.0,87,0.00,,,0.00,WUHU21623XXSP,2013-10-05 07:40:00,
2013-10-05 02:45:00,70.2,66.1,30.05,SSW,202,0.0,0.0,87,0.00,,,0.00,WUHU21623XXSP,2013-10-05 07:45:00,
2013-10-05 02:50:00,70.0,65.9,30.05,SSW,202,0.0,0.0,87,0.00,,,0.00,WUHU21623XXSP,2013-10-05 07:50:00,
2013-10-05 02:56:00,70.0,65.9,30.04,SSW,202,0.0,0.0,87,0.00,,,0.00,WUHU21623XXSP,2013-10-05 07:56:00,
2013-10-05 03:01:00,69.8,65.7,30.04,SSW,202,0.0,0.0,87,0.00,,,0.00,WUHU21623XXSP,2013-10-05 08:01:00,
2013-10-05 03:06:00,69.6,65.5,30.04,SSW,202,0.0,0.0,87,0.00,,,0.00,WUHU21623XXSP,2013-10-05 08:06:00,
2013-10-05 03:11:00,69.6,65.5,30.04,SSW,202,0.0,0.0,87,0.00,,,0.00,WUHU21623XXSP,2013-10-05 08:11:00,
2013-10-05 03:16:00,69.6,65.5,30.04,SSW,202,0.0,0.0,87,0.00,,,0.00,WUHU21623XXSP,2013-10-05 08:16:00,
2013-10-05 03:21:00,69.4,65.4,30.04,SSW,202,0.0,0.0,87,0.00,,,0.00,WUHU21623XXSP,2013-10-05 08:21:00,
2013-10-05 03:26:00,69.4,65.7,30.04,SSW,202,0.0,0.0,88,0.00,,,0.00,WUHU21623XXSP,2013-10-05 08:26:00,
2013-10-05 03:31:00,69.4,65.7,30.04,SSW,202,0.0,0.0,88,0.00,,,0.00,WUHU21623XXSP,2013-10-05 08:31:00,
2013-10-05 03:36:00,69.4,65.7,30.04,SSW,202,0.0,0.0,88,0.00,,,0.00,WUHU21623XXSP,2013-10-05 08:36:00,
2013-10-05 03:41:00,69.3,65.5,30.04,SSW,202,0.0,0.0,88,0.00,,,0.00,WUHU21623XXSP,2013-10-05 08:41:00,
2013-10-05 03:46:00,69.1,65.3,30.04,SSW,202,0.0,0.0,88,0.00,,,0.00,WUHU21623XXSP,2013-10-05 08:46:00,
2013-10-05 03:51:00,69.1,65.3,30.04,SSW,202,0.0,0.0,88,0.00,,,0.00,WUHU21623XXSP,2013-10-05 08:51:00,
2013-10-05 03:56:00,68.9,65.2,30.04,SSW,202,0.0,0.0,88,0.00,,,0.00,WUHU21623XXSP,2013-10-05 08:56:00,
2013-10-05 04:01:00,68.7,65.0,30.04,SSW,202,0.0,0.0,88,0.00,,,0.00,WUHU21623XXSP,2013-10-05 09:01:00,
2013-10-05 04:06:00,68.7,65.0,30.04,SSW,202,0.0,0.0,88,0.00,,,0.00,WUHU21623XXSP,2013-10-05 09:06:00,
2013-10-05 04:11:00,68.7,65.3,30.04,SSW,202,0.0,0.0,89,0.00,,,0.00,WUHU21623XXSP,2013-10-05 09:11:00,
2013-10-05 04:16:00,68.7,65.3,30.04,SSW,202,0.0,0.0,89,0.00,,,0.00,WUHU21623XXSP,2013-10-05 09:16:00,
2013-10-05 04:21:00,68.7,65.3,30.04,SSW,202,0.0,0.0,89,0.00,,,0.00,WUHU21623XXSP,2013-10-05 09:21:00,
2013-10-05 04:26:00,68.7,65.3,30.04,SSW,202,0.0,0.0,89,0.00,,,0.00,WUHU21623XXSP,2013-10-05 09:26:00,
2013-10-05 04:31:00,68.5,65.3,30.04,SSW,202,0.0,0.0,89,0.00,,,0.00,WUHU21623XXSP,2013-10-05 09:31:00,
2013-10-05 04:36:00,68.5,65.1,30.04,SSW,202,0.0,0.0,89,0.00,,,0.00,WUHU21623XXSP,2013-10-05 09:36:00,
2013-10-05 04:41:00,68.5,65.1,30.04,SSW,202,0.0,0.0,89,0.00,,,0.00,WUHU21623XXSP,2013-10-05 09:41:00,
2013-10-05 04:46:00,68.5,65.1,30.04,SSW,202,0.0,0.0,89,0.00,,,0.00,WUHU21623XXSP,2013-10-05 09:46:00,
2013-10-05 04:51:00,68.5,65.1,30.04,SSW,202,0.0,0.0,89,0.00,,,0.00,WUHU21623XXSP,2013-10-05 09:51:00,
2013-10-05 04:55:00,68.5,65.1,30.04,SSW,202,0.0,0.0,89,0.00,,,0.00,WUHU21623XXSP,2013-10-05 09:55:00,
2013-10-05 05:00:00,68.5,65.1,30.04,SSW,202,0.0,0.0,89,0.00,,,0.00,WUHU21623XXSP,2013-10-05 10:00:00,
2013-10-05 05:05:00,68.5,65.1,30.03,SSW,202,0.0,0.0,89,0.00,,,0.00,WUHU21623XXSP,2013-10-05 10:05:00,
2013-10-05 05:12:00,68.5,65.1,30.03,SSW,202,0.0,0.0,89,0.00,,,0.00,WUHU21623XXSP,2013-10-05 10:12:00,
2013-10-05 05:17:00,68.5,65.1,30.03,SSW,202,0.0,0.0,89,0.00,,,0.00,WUHU21623XXSP,2013-10-05 10:17:00,
2013-10-05 05:22:00,68.5,65.1,30.03,SSW,202,0.0,0.0,89,0.00,,,0.00,WUHU21623XXSP,2013-10-05 10:22:00,
2013-10-05 05:27:00,68.5,65.1,30.04,SSW,202,0.0,0.0,89,0.00,,,0.00,WUHU21623XXSP,2013-10-05 10:27:00,
2013-10-05 05:31:00,68.4,65.0,30.03,SSW,202,0.0,0.0,89,0.00,,,0.00,WUHU21623XXSP,2013-10-05 10:31:00,
2013-10-05 05:37:00,68.4,65.0,30.03,SSW,202,0.0,0.0,89,0.00,,,0.00,WUHU21623XXSP,2013-10-05 10:37:00,
2013-10-05 05:41:00,68.4,65.0,30.04,SSW,202,0.0,0.0,89,0.00,,,0.00,WUHU21623XXSP,2013-10-05 10:41:00,
2013-10-05 05:46:00,68.4,65.0,30.03,SSW,202,0.0,0.0,89,0.00,,,0.00,WUHU21623XXSP,2013-10-05 10:46:00,
2013-10-05 05:51:00,68.4,65.0,30.03,SSW,202,0.0,0.0,89,0.00,,,0.00,WUHU21623XXSP,2013-10-05 10:51:00,
2013-10-05 05:56:00,68.4,65.0,30.03,SSW,202,0.0,0.0,89,0.00,,,0.00,WUHU21623XXSP,2013-10-05 10:56:00,
2013-10-05 06:01:00,68.5,65.1,30.03,SSW,202,0.0,0.0,89,0.00,,,0.00,WUHU21623XXSP,2013-10-05 11:01:00,
2013-10-05 06:07:00,68.5,65.1,30.03,SSW,202,0.0,0.0,89,0.00,,,0.00,WUHU21623XXSP,2013-10-05 11:07:00,
2013-10-05 06:12:00,68.5,65.1,30.03,SSW,202,0.0,0.0,89,0.00,,,0.00,WUHU21623XXSP,2013-10-05 11:12:00,
2013-10-05 06:17:00,68.5,65.1,30.03,SSW,202,0.0,0.0,89,0.00,,,0.00,WUHU21623XXSP,2013-10-05 11:17:00,
2013-10-05 06:22:00,68.5,65.1,30.03,SSW,202,0.0,0.0,89,0.00,,,0.00,WUHU21623XXSP,2013-10-05 11:22:00,
2013-10-05 06:27:00,68.5,65.1,30.02,SSW,202,0.0,0.0,89,0.00,,,0.00,WUHU21623XXSP,2013-10-05 11:27:00,
2013-10-05 06:32:00,68.5,65.1,30.02,West,270,0.0,0.0,89,0.00,,,0.00,WUHU21623XXSP,2013-10-05 11:32:00,
2013-10-05 06:37:00,68.7,65.3,30.02,West,270,0.0,0.0,89,0.00,,,0.00,WUHU21623XXSP,2013-10-05 11:37:00,
2013-10-05 06:42:00,68.7,65.3,30.02,West,270,0.0,0.0,89,0.00,,,0.00,WUHU21623XXSP,2013-10-05 11:42:00,
2013-10-05 06:47:00,68.7,65.3,30.03,West,270,0.0,0.0,89,0.00,,,0.00,WUHU21623XXSP,2013-10-05 11:47:00,
2013-10-05 06:52:00,69.1,65.5,30.03,West,270,0.0,0.0,89,0.00,,,0.00,WUHU21623XXSP,2013-10-05 11:52:00,
2013-10-05 06:58:00,69.1,65.7,30.04,West,270,0.0,0.0,89,0.00,,,0.00,WUHU21623XXSP,2013-10-05 11:58:00,
2013-10-05 07:03:00,69.3,65.9,30.04,West,270,0.0,0.0,89,0.00,,,0.00,WUHU21623XXSP,2013-10-05 12:03:00,
2013-10-05 07:08:00,69.4,66.0,30.04,West,270,0.0,0.0,89,0.00,,,0.00,WUHU21623XXSP,2013-10-05 12:08:00,
2013-10-05 07:13:00,69.4,66.0,30.04,West,270,0.0,0.0,89,0.00,,,0.00,WUHU21623XXSP,2013-10-05 12:13:00,
2013-10-05 07:18:00,69.6,66.2,30.04,West,270,0.0,0.0,89,0.00,,,0.00,WUHU21623XXSP,2013-10-05 12:18:00,
2013-10-05 07:23:00,69.6,66.2,30.04,West,270,0.0,0.0,89,0.00,,,0.00,WUHU21623XXSP,2013-10-05 12:23:00,
2013-10-05 07:28:00,69.6,66.4,30.05,West,270,0.0,0.0,89,0.00,,,0.00,WUHU21623XXSP,2013-10-05 12:28:00,
2013-10-05 07:33:00,69.8,66.4,30.05,West,270,0.0,0.0,89,0.00,,,0.00,WUHU21623XXSP,2013-10-05 12:33:00,
2013-10-05 07:39:00,69.8,66.2,30.05,West,270,0.0,0.0,89,0.00,,,0.00,WUHU21623XXSP,2013-10-05 12:39:00,
2013-10-05 07:44:00,69.6,66.2,30.05,West,270,0.0,0.0,89,0.00,,,0.00,WUHU21623XXSP,2013-10-05 12:44:00,
2013-10-05 07:49:00,69.6,66.2,30.05,West,270,0.0,0.0,89,0.00,,,0.00,WUHU21623XXSP,2013-10-05 12:49:00,
2013-10-05 07:54:00,69.6,66.2,30.05,West,270,0.0,0.0,89,0.02,,,0.02,WUHU21623XXSP,2013-10-05 12:54:00,
2013-10-05 07:59:00,69.6,66.2,30.05,West,270,0.0,0.0,89,0.06,,,0.06,WUHU21623XXSP,2013-10-05 12:59:00,
2013-10-05 08:04:00,69.6,66.2,30.05,West,270,0.0,0.0,89,0.06,,,0.06,WUHU21623XXSP,2013-10-05 13:04:00,
2013-10-05 08:09:00,69.6,66.2,30.05,West,270,0.0,0.0,89,0.08,,,0.08,WUHU21623XXSP,2013-10-05 13:09:00,
2013-10-05 08:14:00,69.6,66.2,30.05,West,270,0.0,0.0,89,0.11,,,0.11,WUHU21623XXSP,2013-10-05 13:14:00,
2013-10-05 08:19:00,69.4,66.0,30.05,West,270,0.0,0.0,89,0.15,,,0.15,WUHU21623XXSP,2013-10-05 13:19:00,
2013-10-05 08:24:00,69.4,66.0,30.04,West,270,0.0,0.0,89,0.15,,,0.15,WUHU21623XXSP,2013-10-05 13:24:00,
2013-10-05 08:29:00,69.4,66.4,30.04,SSW,202,0.0,0.0,90,0.19,,,0.19,WUHU21623XXSP,2013-10-05 13:29:00,
2013-10-05 08:34:00,69.4,66.4,30.04,SSW,202,0.0,0.0,90,0.23,,,0.23,WUHU21623XXSP,2013-10-05 13:34:00,
2013-10-05 08:39:00,69.4,66.4,30.05,SSW,202,0.0,0.0,90,0.23,,,0.23,WUHU21623XXSP,2013-10-05 13:39:00,
2013-10-05 08:44:00,69.4,66.4,30.05,SSW,202,0.0,0.0,90,0.25,,,0.25,WUHU21623XXSP,2013-10-05 13:44:00,
2013-10-05 08:49:00,69.3,66.2,30.05,SSW,202,0.0,0.0,90,0.27,,,0.29,WUHU21623XXSP,2013-10-05 13:49:00,
2013-10-05 08:54:00,69.3,66.2,30.04,SSW,202,0.0,0.0,90,0.29,,,0.31,WUHU21623XXSP,2013-10-05 13:54:00,
2013-10-05 08:59:00,69.3,66.2,30.05,SSW,202,0.0,0.0,90,0.29,,,0.35,WUHU21623XXSP,2013-10-05 13:59:00,
2013-10-05 09:04:00,69.4,66.4,30.05,SSW,202,0.0,0.0,90,0.29,,,0.35,WUHU21623XXSP,2013-10-05 14:04:00,
2013-10-05 09:09:00,69.4,66.4,30.05,SSW,202,0.0,0.0,90,0.27,,,0.35,WUHU21623XXSP,2013-10-05 14:09:00,
2013-10-05 09:14:00,69.6,66.6,30.05,SSW,202,0.0,0.0,90,0.20,,,0.35,WUHU21623XXSP,2013-10-05 14:14:00,
2013-10-05 09:19:00,69.6,66.6,30.04,SSW,202,0.0,0.0,90,0.22,,,0.37,WUHU21623XXSP,2013-10-05 14:19:00,
2013-10-05 09:24:00,69.6,66.6,30.05,SSW,202,0.0,0.0,90,0.24,,,0.43,WUHU21623XXSP,2013-10-05 14:24:00,
2013-10-05 09:29:00,69.6,66.6,30.05,SSW,202,0.0,0.0,90,0.20,,,0.43,WUHU21623XXSP,2013-10-05 14:29:00,
2013-10-05 09:34:00,69.4,66.4,30.05,SSW,202,0.0,0.0,90,0.20,,,0.43,WUHU21623XXSP,2013-10-05 14:34:00,
2013-10-05 09:39:00,69.6,66.6,30.05,SSW,202,0.0,0.0,91,0.18,,,0.43,WUHU21623XXSP,2013-10-05 14:39:00,
2013-10-05 09:44:00,70.0,67.2,30.05,SSW,202,0.0,0.0,91,0.16,,,0.43,WUHU21623XXSP,2013-10-05 14:44:00,
2013-10-05 09:49:00,70.0,67.4,30.05,SSW,202,0.0,0.0,91,0.14,,,0.43,WUHU21623XXSP,2013-10-05 14:49:00,
2013-10-05 09:54:00,70.2,67.1,30.05,SSW,202,0.0,0.0,90,0.10,,,0.43,WUHU21623XXSP,2013-10-05 14:54:00,
2013-10-05 09:59:00,70.3,67.6,30.05,SSW,202,0.0,0.0,91,0.08,,,0.43,WUHU21623XXSP,2013-10-05 14:59:00,
2013-10-05 10:04:00,70.3,67.6,30.05,SSW,202,0.0,0.0,91,0.08,,,0.43,WUHU21623XXSP,2013-10-05 15:04:00,
2013-10-05 10:09:00,70.5,67.8,30.05,SSW,202,0.0,0.0,91,0.08,,,0.43,WUHU21623XXSP,2013-10-05 15:09:00,
2013-10-05 10:14:00,70.9,68.1,30.04,WSW,247,0.0,0.0,91,0.08,,,0.43,WUHU21623XXSP,2013-10-05 15:14:00,
2013-10-05 10:19:00,70.9,68.1,30.04,WSW,247,0.0,0.0,91,0.04,,,0.43,WUHU21623XXSP,2013-10-05 15:19:00,
2013-10-05 10:24:00,70.9,68.1,30.04,WSW,247,0.0,0.0,91,0.00,,,0.43,WUHU21623XXSP,2013-10-05 15:24:00,
2013-10-05 10:29:00,70.9,68.1,30.04,West,270,0.0,0.0,91,0.00,,,0.43,WUHU21623XXSP,2013-10-05 15:29:00,
2013-10-05 10:34:00,71.1,68.3,30.04,WSW,247,0.0,0.0,91,0.00,,,0.43,WUHU21623XXSP,2013-10-05 15:34:00,
2013-10-05 10:39:00,71.2,68.2,30.04,WSW,247,0.0,0.0,90,0.00,,,0.43,WUHU21623XXSP,2013-10-05 15:39:00,
2013-10-05 10:44:00,71.4,68.4,30.05,WSW,247,0.0,0.0,90,0.00,,,0.43,WUHU21623XXSP,2013-10-05 15:44:00,
2013-10-05 10:49:00,71.4,68.4,30.05,WSW,247,0.0,0.0,90,0.00,,,0.43,WUHU21623XXSP,2013-10-05 15:49:00,
2013-10-05 10:54:00,71.6,68.8,30.05,WSW,247,0.0,0.0,91,0.00,,,0.43,WUHU21623XXSP,2013-10-05 15:54:00,
2013-10-05 10:59:00,71.8,69.0,30.05,WSW,247,0.0,0.0,91,0.00,,,0.43,WUHU21623XXSP,2013-10-05 15:59:00,
2013-10-05 11:04:00,71.8,69.0,30.05,WSW,247,0.0,0.0,91,0.00,,,0.43,WUHU21623XXSP,2013-10-05 16:04:00,
2013-10-05 11:09:00,71.8,69.0,30.05,WSW,247,0.0,0.0,91,0.00,,,0.43,WUHU21623XXSP,2013-10-05 16:09:00,
2013-10-05 11:14:00,72.0,69.2,30.05,WSW,247,0.0,0.0,91,0.00,,,0.43,WUHU21623XXSP,2013-10-05 16:14:00,
2013-10-05 11:19:00,71.8,69.0,30.05,WSW,247,0.0,0.0,91,0.00,,,0.43,WUHU21623XXSP,2013-10-05 16:19:00,
2013-10-05 11:24:00,72.1,69.4,30.05,WSW,247,0.0,0.0,91,0.00,,,0.43,WUHU21623XXSP,2013-10-05 16:24:00,
2013-10-05 11:29:00,72.5,69.6,30.05,WSW,247,0.0,0.0,91,0.00,,,0.43,WUHU21623XXSP,2013-10-05 16:29:00,
2013-10-05 11:34:00,72.7,69.9,30.05,WSW,247,0.0,0.0,91,0.00,,,0.43,WUHU21623XXSP,2013-10-05 16:34:00,
2013-10-05 11:39:00,73.2,70.3,30.05,WSW,247,0.0,0.0,91,0.00,,,0.43,WUHU21623XXSP,2013-10-05 16:39:00,
2013-10-05 11:47:00,73.2,70.2,30.05,WSW,247,0.0,0.0,90,0.00,,,0.43,WUHU21623XXSP,2013-10-05 16:47:00,
2013-10-05 11:52:00,73.9,70.7,30.05,WSW,247,0.0,0.0,90,0.00,,,0.43,WUHU21623XXSP,2013-10-05 16:52:00,
2013-10-05 11:58:00,74.1,70.9,30.05,WSW,247,0.0,0.0,90,0.00,,,0.43,WUHU21623XXSP,2013-10-05 16:58:00,
2013-10-05 12:03:00,74.1,71.1,30.05,WSW,247,0.0,0.0,90,0.00,,,0.43,WUHU21623XXSP,2013-10-05 17:03:00,
2013-10-05 12:08:00,74.3,71.2,30.04,WSW,247,0.0,0.0,90,0.00,,,0.43,WUHU21623XXSP,2013-10-05 17:08:00,
2013-10-05 12:13:00,74.5,71.4,30.04,SSW,202,0.0,0.0,90,0.00,,,0.43,WUHU21623XXSP,2013-10-05 17:13:00,
2013-10-05 12:18:00,74.8,71.4,30.04,SSW,202,0.0,0.0,89,0.00,,,0.43,WUHU21623XXSP,2013-10-05 17:18:00,
2013-10-05 12:23:00,75.4,72.0,30.03,SSW,202,0.0,0.0,89,0.00,,,0.43,WUHU21623XXSP,2013-10-05 17:23:00,
2013-10-05 12:28:00,75.7,72.3,30.03,WSW,247,0.0,0.0,89,0.00,,,0.43,WUHU21623XXSP,2013-10-05 17:28:00,
2013-10-05 12:33:00,75.9,72.5,30.03,WSW,247,0.0,0.0,88,0.00,,,0.43,WUHU21623XXSP,2013-10-05 17:33:00,
2013-10-05 12:38:00,76.6,72.5,30.03,WSW,247,0.0,0.0,87,0.00,,,0.43,WUHU21623XXSP,2013-10-05 17:38:00,
2013-10-05 12:43:00,77.0,72.7,30.02,WSW,247,0.0,0.0,87,0.00,,,0.43,WUHU21623XXSP,2013-10-05 17:43:00,
2013-10-05 12:48:00,77.4,73.2,30.02,WSW,247,0.0,0.0,87,0.00,,,0.43,WUHU21623XXSP,2013-10-05 17:48:00,
2013-10-05 12:53:00,78.1,73.6,30.01,SW,225,0.0,0.0,86,0.00,,,0.43,WUHU21623XXSP,2013-10-05 17:53:00,
2013-10-05 12:58:00,78.6,73.8,30.02,SW,225,0.0,0.0,85,0.00,,,0.43,WUHU21623XXSP,2013-10-05 17:58:00,
2013-10-05 13:03:00,79.7,74.1,30.01,SW,225,0.0,0.0,83,0.00,,,0.43,WUHU21623XXSP,2013-10-05 18:03:00,
2013-10-05 13:08:00,79.5,73.6,30.01,WSW,247,0.0,0.0,82,0.00,,,0.43,WUHU21623XXSP,2013-10-05 18:08:00,
2013-10-05 13:13:00,79.2,73.2,30.01,WSW,247,0.0,0.0,82,0.00,,,0.43,WUHU21623XXSP,2013-10-05 18:13:00,
2013-10-05 13:18:00,78.6,72.3,30.00,SSW,202,0.0,0.0,81,0.00,,,0.43,WUHU21623XXSP,2013-10-05 18:18:00,
2013-10-05 13:23:00,78.6,72.7,30.00,West,270,0.0,0.0,82,0.00,,,0.43,WUHU21623XXSP,2013-10-05 18:23:00,
2013-10-05 13:29:00,79.0,72.7,30.00,West,270,0.0,0.0,81,0.00,,,0.43,WUHU21623XXSP,2013-10-05 18:29:00,
2013-10-05 13:34:00,79.3,73.0,29.99,West,270,0.0,0.0,81,0.00,,,0.43,WUHU21623XXSP,2013-10-05 18:34:00,
2013-10-05 13:39:00,79.3,73.0,29.99,SSW,202,0.0,0.0,81,0.00,,,0.43,WUHU21623XXSP,2013-10-05 18:39:00,
2013-10-05 13:44:00,80.1,74.1,29.98,ENE,67,0.0,0.0,82,0.00,,,0.43,WUHU21623XXSP,2013-10-05 18:44:00,
2013-10-05 13:49:00,81.0,74.3,29.98,ENE,67,0.0,0.0,80,0.00,,,0.43,WUHU21623XXSP,2013-10-05 18:49:00,
2013-10-05 13:54:00,81.5,74.4,29.97,ENE,67,0.0,0.0,79,0.00,,,0.43,WUHU21623XXSP,2013-10-05 18:54:00,
2013-10-05 13:59:00,81.5,73.6,29.97,ENE,67,0.0,0.0,77,0.00,,,0.43,WUHU21623XXSP,2013-10-05 18:59:00,
2013-10-05 14:04:00,81.1,73.3,29.97,ENE,67,0.0,0.0,77,0.00,,,0.43,WUHU21623XXSP,2013-10-05 19:04:00,
2013-10-05 14:09:00,80.8,72.9,29.97,ENE,67,0.0,0.0,77,0.00,,,0.43,WUHU21623XXSP,2013-10-05 19:09:00,
2013-10-05 14:14:00,80.4,72.2,29.97,ENE,67,0.0,0.0,76,0.00,,,0.43,WUHU21623XXSP,2013-10-05 19:14:00,
2013-10-05 14:19:00,80.2,72.4,29.96,NNE,22,0.0,0.0,77,0.00,,,0.43,WUHU21623XXSP,2013-10-05 19:19:00,
2013-10-05 14:24:00,79.9,71.6,29.96,NW,315,0.0,0.0,76,0.00,,,0.43,WUHU21623XXSP,2013-10-05 19:24:00,
2013-10-05 14:30:00,79.7,71.5,29.96,NW,315,0.0,0.0,76,0.00,,,0.43,WUHU21623XXSP,2013-10-05 19:30:00,
2013-10-05 14:35:00,79.5,71.3,29.96,North,0,0.0,0.0,76,0.00,,,0.43,WUHU21623XXSP,2013-10-05 19:35:00,
2013-10-05 14:40:00,79.5,71.7,29.95,North,0,0.0,0.0,77,0.00,,,0.43,WUHU21623XXSP,2013-10-05 19:40:00,
2013-10-05 14:45:00,79.7,71.9,29.95,North,0,0.0,0.0,77,0.00,,,0.43,WUHU21623XXSP,2013-10-05 19:45:00,
2013-10-05 14:50:00,80.2,72.0,29.95,North,0,0.0,0.0,76,0.00,,,0.43,WUHU21623XXSP,2013-10-05 19:50:00,
2013-10-05 14:55:00,81.0,72.7,29.95,NE,45,0.0,0.0,76,0.00,,,0.43,WUHU21623XXSP,2013-10-05 19:55:00,
2013-10-05 15:00:00,81.1,72.6,29.95,NE,45,0.0,0.0,76,0.00,,,0.43,WUHU21623XXSP,2013-10-05 20:00:00,
2013-10-05 15:05:00,81.0,72.3,29.95,NE,45,0.0,0.0,75,0.00,,,0.43,WUHU21623XXSP,2013-10-05 20:05:00,
2013-10-05 15:10:00,80.4,71.8,29.94,NE,45,0.0,0.0,75,0.00,,,0.43,WUHU21623XXSP,2013-10-05 20:10:00,
2013-10-05 15:15:00,79.9,71.6,29.95,NE,45,0.0,0.0,76,0.00,,,0.43,WUHU21623XXSP,2013-10-05 20:15:00,
2013-10-05 15:20:00,79.9,71.6,29.95,NE,45,0.0,0.0,76,0.00,,,0.43,WUHU21623XXSP,2013-10-05 20:20:00,
2013-10-05 15:25:00,79.9,72.0,29.94,NE,45,0.0,0.0,77,0.00,,,0.43,WUHU21623XXSP,2013-10-05 20:25:00,
2013-10-05 15:30:00,80.2,71.8,29.95,NE,45,0.0,0.0,76,0.00,,,0.43,WUHU21623XXSP,2013-10-05 20:30:00,
2013-10-05 15:35:00,80.4,72.2,29.95,ENE,67,0.0,0.0,76,0.00,,,0.43,WUHU21623XXSP,2013-10-05 20:35:00,
2013-10-05 15:40:00,80.6,72.0,29.94,ENE,67,0.0,0.0,75,0.00,,,0.43,WUHU21623XXSP,2013-10-05 20:40:00,
2013-10-05 15:45:00,81.0,72.3,29.94,ENE,67,0.0,0.0,75,0.00,,,0.43,WUHU21623XXSP,2013-10-05 20:45:00,
2013-10-05 15:50:00,80.6,71.6,29.94,ENE,67,0.0,0.0,74,0.00,,,0.43,WUHU21623XXSP,2013-10-05 20:50:00,
2013-10-05 15:55:00,80.4,71.8,29.95,ENE,67,0.0,0.0,75,0.00,,,0.43,WUHU21623XXSP,2013-10-05 20:55:00,
2013-10-05 16:00:00,79.9,71.2,29.95,ENE,67,0.0,0.0,75,0.00,,,0.43,WUHU21623XXSP,2013-10-05 21:00:00,
2013-10-05 16:05:00,79.3,71.1,29.95,ENE,67,0.0,0.0,76,0.00,,,0.43,WUHU21623XXSP,2013-10-05 21:05:00,
2013-10-05 16:10:00,79.2,70.9,29.94,NNW,337,0.0,0.0,76,0.00,,,0.43,WUHU21623XXSP,2013-10-05 21:10:00,
2013-10-05 16:15:00,79.0,70.3,29.94,NE,45,0.0,0.0,75,0.00,,,0.43,WUHU21623XXSP,2013-10-05 21:15:00,
2013-10-05 16:20:00,79.0,70.3,29.94,NE,45,0.0,0.0,75,0.00,,,0.43,WUHU21623XXSP,2013-10-05 21:20:00,
2013-10-05 16:25:00,79.0,70.3,29.94,East,90,0.0,0.0,75,0.00,,,0.43,WUHU21623XXSP,2013-10-05 21:25:00,
2013-10-05 16:30:00,79.0,70.3,29.94,East,90,0.0,0.0,75,0.00,,,0.43,WUHU21623XXSP,2013-10-05 21:30:00,
2013-10-05 16:35:00,79.0,70.3,29.94,NE,45,0.0,0.0,75,0.00,,,0.43,WUHU21623XXSP,2013-10-05 21:35:00,
2013-10-05 16:40:00,78.6,70.0,29.94,NE,45,0.0,0.0,75,0.00,,,0.43,WUHU21623XXSP,2013-10-05 21:40:00,
2013-10-05 16:45:00,78.6,70.0,29.94,NE,45,0.0,0.0,75,0.00,,,0.43,WUHU21623XXSP,2013-10-05 21:45:00,
2013-10-05 16:51:00,78.4,69.8,29.94,NE,45,0.0,0.0,75,0.00,,,0.43,WUHU21623XXSP,2013-10-05 21:51:00,
2013-10-05 16:56:00,78.1,69.8,29.94,NE,45,0.0,0.0,75,0.00,,,0.43,WUHU21623XXSP,2013-10-05 21:56:00,
2013-10-05 17:01:00,77.9,69.5,29.94,NE,45,0.0,0.0,75,0.00,,,0.43,WUHU21623XXSP,2013-10-05 22:01:00,
2013-10-05 17:06:00,77.9,69.7,29.95,NE,45,0.0,0.0,76,0.00,,,0.43,WUHU21623XXSP,2013-10-05 22:06:00,
2013-10-05 17:11:00,77.9,69.7,29.95,NE,45,0.0,0.0,76,0.00,,,0.43,WUHU21623XXSP,2013-10-05 22:11:00,
2013-10-05 17:16:00,77.7,70.3,29.95,NE,45,0.0,0.0,78,0.00,,,0.43,WUHU21623XXSP,2013-10-05 22:16:00,
2013-10-05 17:21:00,77.4,69.9,29.95,NE,45,0.0,0.0,78,0.00,,,0.43,WUHU21623XXSP,2013-10-05 22:21:00,
2013-10-05 17:26:00,77.2,70.1,29.95,NE,45,0.0,0.0,79,0.00,,,0.43,WUHU21623XXSP,2013-10-05 22:26:00,
2013-10-05 17:31:00,76.6,70.0,29.95,NE,45,0.0,0.0,80,0.00,,,0.43,WUHU21623XXSP,2013-10-05 22:31:00,
2013-10-05 17:36:00,76.3,69.7,29.96,NE,45,0.0,0.0,80,0.00,,,0.43,WUHU21623XXSP,2013-10-05 22:36:00,
2013-10-05 17:41:00,75.9,70.1,29.96,NE,45,0.0,0.0,82,0.00,,,0.43,WUHU21623XXSP,2013-10-05 22:41:00,
2013-10-05 17:46:00,75.4,69.9,29.96,NE,45,0.0,0.0,83,0.00,,,0.43,WUHU21623XXSP,2013-10-05 22:46:00,
2013-10-05 17:51:00,75.0,69.6,29.96,ENE,67,0.0,0.0,83,0.00,,,0.43,WUHU21623XXSP,2013-10-05 22:51:00,
2013-10-05 17:56:00,75.0,69.6,29.95,ENE,67,0.0,0.0,84,0.00,,,0.43,WUHU21623XXSP,2013-10-05 22:56:00,
2013-10-05 18:01:00,74.7,69.5,29.95,ESE,112,0.0,0.0,84,0.00,,,0.43,WUHU21623XXSP,2013-10-05 23:01:00,
2013-10-05 18:06:00,74.5,69.7,29.95,ESE,112,0.0,0.0,85,0.00,,,0.43,WUHU21623XXSP,2013-10-05 23:06:00,
2013-10-05 18:11:00,74.5,69.7,29.95,ESE,112,0.0,0.0,85,0.00,,,0.43,WUHU21623XXSP,2013-10-05 23:11:00,
2013-10-05 18:16:00,74.1,69.3,29.95,ESE,112,0.0,0.0,85,0.02,,,0.45,WUHU21623XXSP,2013-10-05 23:16:00,
2013-10-05 18:21:00,73.9,69.5,29.95,ESE,112,0.0,0.0,86,0.02,,,0.45,WUHU21623XXSP,2013-10-05 23:21:00,
2013-10-05 18:26:00,73.8,69.3,29.94,ESE,112,0.0,0.0,86,0.04,,,0.47,WUHU21623XXSP,2013-10-05 23:26:00,
2013-10-05 18:31:00,73.6,69.5,29.94,ESE,112,0.0,0.0,87,0.04,,,0.47,WUHU21623XXSP,2013-10-05 23:31:00,
2013-10-05 18:36:00,73.6,69.5,29.94,ESE,112,0.0,0.0,87,0.04,,,0.47,WUHU21623XXSP,2013-10-05 23:36:00,
2013-10-05 18:41:00,73.2,69.1,29.95,ESE,112,0.0,0.0,87,0.04,,,0.47,WUHU21623XXSP,2013-10-05 23:41:00,
2013-10-05 18:46:00,73.2,69.5,29.95,ESE,112,0.0,0.0,88,0.04,,,0.47,WUHU21623XXSP,2013-10-05 23:46:00,
2013-10-05 18:51:00,73.0,69.3,29.95,ESE,112,0.0,0.0,88,0.12,,,0.55,WUHU21623XXSP,2013-10-05 23:51:00,
2013-10-05 18:56:00,72.7,68.9,29.95,NE,45,0.0,0.0,88,0.16,,,0.59,WUHU21623XXSP,2013-10-05 23:56:00,
2013-10-05 19:01:00,72.5,68.8,29.95,NE,45,0.0,0.0,88,0.25,,,0.68,WUHU21623XXSP,2013-10-06 00:01:00,
2013-10-05 19:06:00,72.3,68.6,29.95,NE,45,0.0,0.0,88,0.31,,,0.74,WUHU21623XXSP,2013-10-06 00:06:00,
2013-10-05 19:11:00,72.3,68.9,29.95,NE,45,0.0,0.0,89,0.35,,,0.80,WUHU21623XXSP,2013-10-06 00:11:00,
2013-10-05 19:17:00,72.3,68.9,29.94,NE,45,0.0,0.0,89,0.37,,,0.82,WUHU21623XXSP,2013-10-06 00:17:00,
2013-10-05 19:22:00,72.1,68.7,29.94,NE,45,0.0,0.0,89,0.35,,,0.82,WUHU21623XXSP,2013-10-06 00:22:00,
2013-10-05 19:27:00,72.1,68.7,29.95,NE,45,0.0,0.0,89,0.35,,,0.82,WUHU21623XXSP,2013-10-06 00:27:00,
2013-10-05 19:32:00,71.4,68.0,29.96,SE,135,4.8,9.4,89,0.35,,,0.82,WUHU21623XXSP,2013-10-06 00:32:00,
2013-10-05 19:37:00,70.7,67.3,29.96,SE,135,0.0,9.4,89,0.37,,,0.84,WUHU21623XXSP,2013-10-06 00:37:00,
2013-10-05 19:42:00,70.5,67.1,29.95,ESE,112,0.4,9.4,89,0.39,,,0.86,WUHU21623XXSP,2013-10-06 00:42:00,
2013-10-05 19:47:00,70.0,66.9,29.94,ENE,67,0.0,3.4,89,0.31,,,0.86,WUHU21623XXSP,2013-10-06 00:47:00,
2013-10-05 19:52:00,69.4,66.0,29.96,ESE,112,0.0,0.0,89,0.31,,,0.88,WUHU21623XXSP,2013-10-06 00:52:00,
2013-10-05 19:58:00,69.1,65.7,29.94,SSE,157,0.0,0.0,89,0.30,,,0.92,WUHU21623XXSP,2013-10-06 00:58:00,
2013-10-05 20:03:00,68.7,65.3,29.94,SSE,157,0.0,0.0,89,0.32,,,1.06,WUHU21623XXSP,2013-10-06 01:03:00,
2013-10-05 20:08:00,68.7,65.3,29.94,SE,135,0.0,0.0,89,0.30,,,1.08,WUHU21623XXSP,2013-10-06 01:08:00,
2013-10-05 20:13:00,68.5,65.1,29.94,SE,135,0.0,0.0,89,0.26,,,1.08,WUHU21623XXSP,2013-10-06 01:13:00,
2013-10-05 20:18:00,68.4,65.0,29.94,SW,225,0.0,0.0,89,0.31,,,1.13,WUHU21623XXSP,2013-10-06 01:18:00,
2013-10-05 20:23:00,68.4,65.3,29.94,SW,225,0.0,0.0,90,0.31,,,1.13,WUHU21623XXSP,2013-10-06 01:23:00,
2013-10-05 20:28:00,68.4,65.3,29.94,SW,225,0.0,0.0,90,0.31,,,1.13,WUHU21623XXSP,2013-10-06 01:28:00,
2013-10-05 20:33:00,68.4,65.3,29.95,SW,225,0.0,0.0,90,0.31,,,1.13,WUHU21623XXSP,2013-10-06 01:33:00,
2013-10-05 20:38:00,68.4,65.3,29.95,SW,225,0.0,0.0,90,0.27,,,1.13,WUHU21623XXSP,2013-10-06 01:38:00,
2013-10-05 20:43:00,68.4,65.3,29.95,SE,135,0.0,0.0,90,0.27,,,1.13,WUHU21623XXSP,2013-10-06 01:43:00,
2013-10-05 20:48:00,68.4,65.3,29.95,SE,135,0.0,0.0,90,0.25,,,1.13,WUHU21623XXSP,2013-10-06 01:48:00,
2013-10-05 20:53:00,68.5,65.5,29.94,SSE,157,3.0,5.8,90,0.23,,,1.13,WUHU21623XXSP,2013-10-06 01:53:00,
2013-10-05 20:58:00,68.4,65.3,29.96,ENE,67,0.0,5.8,90,0.09,,,1.13,WUHU21623XXSP,2013-10-06 01:58:00,
2013-10-05 21:03:00,68.4,65.3,29.94,SSE,157,0.0,5.8,90,0.05,,,1.13,WUHU21623XXSP,2013-10-06 02:03:00,
2013-10-05 21:09:00,68.2,65.1,29.95,SSE,157,0.0,0.0,90,0.27,,,1.35,WUHU21623XXSP,2013-10-06 02:09:00,
2013-10-05 21:14:00,68.2,65.1,29.95,SSE,157,0.0,0.0,90,0.28,,,1.41,WUHU21623XXSP,2013-10-06 02:14:00,
2013-10-05 21:19:00,68.2,65.1,29.95,WSW,247,0.0,0.0,90,0.28,,,1.41,WUHU21623XXSP,2013-10-06 02:19:00,
2013-10-05 21:24:00,68.0,64.9,29.95,WSW,247,0.0,0.0,90,0.28,,,1.41,WUHU21623XXSP,2013-10-06 02:24:00,
2013-10-05 21:29:00,67.8,64.8,29.95,WSW,247,0.2,0.4,90,0.28,,,1.41,WUHU21623XXSP,2013-10-06 02:29:00,
2013-10-05 21:34:00,68.0,65.2,29.94,WSW,247,0.0,0.4,91,0.30,,,1.43,WUHU21623XXSP,2013-10-06 02:34:00,
2013-10-05 21:41:00,67.8,65.1,29.93,West,270,0.0,4.5,91,0.30,,,1.43,WUHU21623XXSP,2013-10-06 02:41:00,
2013-10-05 21:46:00,68.0,65.2,29.94,West,270,0.0,4.5,91,0.30,,,1.43,WUHU21623XXSP,2013-10-06 02:46:00,
2013-10-05 21:52:00,68.0,65.2,29.93,WSW,247,1.4,2.7,91,0.30,,,1.43,WUHU21623XXSP,2013-10-06 02:52:00,
2013-10-05 21:57:00,67.8,65.1,29.93,WSW,247,0.0,2.7,91,0.30,,,1.43,WUHU21623XXSP,2013-10-06 02:57:00,
2013-10-05 22:03:00,68.0,65.1,29.94,WSW,247,0.0,2.7,91,0.30,,,1.43,WUHU21623XXSP,2013-10-06 03:03:00,
2013-10-05 22:08:00,68.0,65.2,29.93,WSW,247,0.0,0.0,91,0.10,,,1.45,WUHU21623XXSP,2013-10-06 03:08:00,
2013-10-05 22:13:00,68.0,65.2,29.92,West,270,0.0,1.3,91,0.04,,,1.45,WUHU21623XXSP,2013-10-06 03:13:00,
2013-10-05 22:18:00,67.8,65.1,29.92,WSW,247,0.0,1.3,91,0.10,,,1.51,WUHU21623XXSP,2013-10-06 03:18:00,
2013-10-05 22:23:00,67.8,65.1,29.92,West,270,0.0,0.0,91,0.12,,,1.53,WUHU21623XXSP,2013-10-06 03:23:00,
2013-10-05 22:28:00,67.8,65.1,29.92,SW,225,3.3,6.5,91,0.10,,,1.53,WUHU21623XXSP,2013-10-06 03:28:00,
2013-10-05 22:33:00,67.8,65.1,29.92,SW,225,0.9,8.3,91,0.10,,,1.53,WUHU21623XXSP,2013-10-06 03:33:00,
2013-10-05 22:38:00,67.8,65.1,29.92,WSW,247,0.0,8.3,91,0.10,,,1.53,WUHU21623XXSP,2013-10-06 03:38:00,
2013-10-05 22:44:00,67.8,65.1,29.91,WSW,247,0.0,0.0,91,0.10,,,1.53,WUHU21623XXSP,2013-10-06 03:44:00,
2013-10-05 22:49:00,67.8,65.1,29.91,WSW,247,0.0,5.6,91,0.10,,,1.53,WUHU21623XXSP,2013-10-06 03:49:00,
2013-10-05 22:54:00,67.8,65.1,29.91,WSW,247,0.0,5.6,91,0.10,,,1.53,WUHU21623XXSP,2013-10-06 03:54:00,
2013-10-05 22:59:00,67.8,65.1,29.90,West,270,0.0,0.0,91,0.10,,,1.53,WUHU21623XXSP,2013-10-06 03:59:00,
2013-10-05 23:01:00,67.8,65.1,29.90,West,270,0.0,0.0,91,0.10,,,1.53,WUHU21623XXSP,2013-10-06 04:01:00,
2013-10-05 23:03:00,67.8,65.1,29.90,WSW,247,0.0,0.0,91,0.10,,,1.53,WUHU21623XXSP,2013-10-06 04:03:00,
2013-10-05 23:08:00,67.8,65.1,29.90,WSW,247,0.0,0.0,91,0.08,,,1.53,WUHU21623XXSP,2013-10-06 04:08:00,
2013-10-05 23:13:00,67.8,65.1,29.89,WSW,247,3.8,7.4,91,0.04,,,1.53,WUHU21623XXSP,2013-10-06 04:13:00,
2013-10-05 23:18:00,67.8,65.1,29.89,West,270,0.0,7.4,91,0.02,,,1.53,WUHU21623XXSP,2013-10-06 04:18:00,
2013-10-05 23:23:00,67.8,65.1,29.89,WSW,247,0.0,6.5,91,0.00,,,1.53,WUHU21623XXSP,2013-10-06 04:23:00,
2013-10-05 23:28:00,67.8,65.1,29.89,West,270,0.0,6.5,91,0.00,,,1.53,WUHU21623XXSP,2013-10-06 04:28:00,
2013-10-05 23:33:00,67.8,65.1,29.89,WSW,247,0.0,1.3,91,0.00,,,1.53,WUHU21623XXSP,2013-10-06 04:33:00,
2013-10-05 23:38:00,67.8,65.1,29.89,WSW,247,0.0,0.0,91,0.00,,,1.53,WUHU21623XXSP,2013-10-06 04:38:00,
2013-10-05 23:43:00,67.8,65.1,29.89,SW,225,0.0,0.0,91,0.00,,,1.53,WUHU21623XXSP,2013-10-06 04:43:00,
2013-10-05 23:48:00,68.0,65.6,29.89,WSW,247,0.0,0.0,92,0.00,,,1.53,WUHU21623XXSP,2013-10-06 04:48:00,
2013-10-05 23:53:00,68.2,65.6,29.89,SW,225,0.0,0.0,92,0.00,,,1.53,WUHU21623XXSP,2013-10-06 04:53:00,
2013-10-05 23:58:00,68.2,65.7,29.89,SW,225,0.0,0.0,92,0.00,,,1.53,WUHU21623XXSP,2013-10-06 04:58:00,